createdAt,value
2018-04-16T00:01:28.134Z,19
2018-04-16T00:11:28.172Z,19
2018-04-16T00:21:26.960Z,19
2018-04-16T00:31:29.189Z,19
2018-04-16T00:41:32.914Z,18
2018-04-16T00:51:28.135Z,18
2018-04-16T01:01:29.517Z,19
2018-04-16T01:11:27.576Z,19
2018-04-16T01:21:27.548Z,18
2018-04-16T01:31:27.542Z,18
2018-04-16T01:41:27.858Z,18
2018-04-16T01:51:29.263Z,18
2018-04-16T02:01:28.470Z,18
2018-04-16T02:11:28.769Z,18
2018-04-16T02:21:28.280Z,18
2018-04-16T02:31:27.987Z,18
2018-04-16T02:41:29.670Z,18
2018-04-16T02:51:27.566Z,18
2018-04-16T03:01:27.384Z,18
2018-04-16T03:11:27.658Z,18
2018-04-16T03:21:28.914Z,18
2018-04-16T03:31:27.901Z,18
2018-04-16T03:51:33.284Z,18
2018-04-16T04:01:26.954Z,17
2018-04-16T04:11:30.095Z,17
2018-04-16T04:21:27.955Z,18
2018-04-16T04:31:27.102Z,18
2018-04-16T04:41:28.201Z,18
2018-04-16T04:51:30.035Z,18
2018-04-16T05:01:30.079Z,18
2018-04-16T05:11:30.527Z,17
2018-04-16T05:21:30.056Z,17
2018-04-16T05:31:29.388Z,17
2018-04-16T05:41:32.537Z,17
2018-04-16T05:51:34.051Z,18
2018-04-16T06:01:28.240Z,18
2018-04-16T06:11:33.392Z,18
2018-04-16T06:21:33.834Z,17
2018-04-16T06:31:27.687Z,17
2018-04-16T06:41:32.232Z,18
2018-04-16T06:51:32.662Z,18
2018-04-16T07:01:32.150Z,18
2018-04-16T07:11:29.267Z,18
2018-04-16T07:21:28.207Z,18
2018-04-16T07:31:29.261Z,18
2018-04-16T07:41:28.253Z,18
2018-04-16T07:51:28.352Z,19
2018-04-16T08:01:27.385Z,19
2018-04-16T08:11:27.219Z,19
2018-04-16T08:21:29.159Z,20
2018-04-16T08:31:30.393Z,20
2018-04-16T08:41:32.175Z,20
2018-04-16T08:51:27.876Z,20
2018-04-16T09:01:27.636Z,20
2018-04-16T09:11:27.300Z,21
2018-04-16T09:21:42.482Z,21
2018-04-16T09:31:31.621Z,21
2018-04-16T09:41:32.844Z,21
2018-04-16T10:01:32.515Z,21
2018-04-16T10:11:32.578Z,22
2018-04-16T10:21:33.131Z,22
2018-04-16T10:31:33.404Z,22
2018-04-16T10:41:39.600Z,22
2018-04-16T10:51:45.934Z,22
2018-04-16T11:01:42.570Z,22
2018-04-16T11:11:28.091Z,22
2018-04-16T11:21:28.567Z,22
2018-04-16T11:31:33.756Z,23
2018-04-16T11:41:44.514Z,23
2018-04-16T11:51:32.137Z,23
2018-04-16T12:01:27.869Z,23
2018-04-16T12:11:32.288Z,23
2018-04-16T12:21:33.059Z,24
2018-04-16T12:31:32.714Z,24
2018-04-16T12:41:32.865Z,23
2018-04-16T12:51:33.211Z,24
2018-04-16T13:01:34.352Z,24
2018-04-16T13:11:31.553Z,23
2018-04-16T13:21:32.634Z,23
2018-04-16T13:31:33.878Z,23
2018-04-16T13:41:32.762Z,23
2018-04-16T13:51:32.915Z,23
2018-04-16T14:01:32.279Z,23
2018-04-16T14:11:33.551Z,23
2018-04-16T14:21:32.696Z,23
2018-04-16T14:31:28.541Z,23
2018-04-16T14:41:27.924Z,23
2018-04-16T14:51:43.055Z,23
2018-04-16T15:01:29.076Z,23
2018-04-16T15:11:26.771Z,23
2018-04-16T15:21:27.664Z,23
2018-04-16T15:31:26.744Z,23
2018-04-16T15:41:32.470Z,23
2018-04-16T15:51:32.179Z,23
2018-04-16T16:01:26.932Z,23
2018-04-16T16:11:32.186Z,23
2018-04-16T16:21:32.222Z,23
2018-04-16T16:31:44.007Z,23
2018-04-16T16:51:32.155Z,22
2018-04-16T17:01:46.801Z,22
2018-04-16T17:11:27.471Z,22
2018-04-16T17:21:31.872Z,22
2018-04-16T17:31:32.121Z,22
2018-04-16T17:41:33.829Z,21
2018-04-16T17:51:29.721Z,21
2018-04-16T18:01:33.752Z,21
2018-04-16T18:11:28.242Z,21
2018-04-16T18:21:26.570Z,21
2018-04-16T18:31:26.372Z,21
2018-04-16T18:41:28.158Z,21
2018-04-16T18:51:28.427Z,20
2018-04-16T19:01:32.943Z,20
2018-04-16T19:11:32.250Z,20
2018-04-16T19:21:28.238Z,20
2018-04-16T19:31:27.130Z,20
2018-04-16T19:41:29.551Z,20
2018-04-16T19:51:29.443Z,20
2018-04-16T20:01:26.255Z,20
2018-04-16T20:11:32.464Z,20
2018-04-16T20:31:32.764Z,20
2018-04-16T20:41:44.701Z,19
2018-04-16T20:51:40.647Z,18
2018-04-16T21:11:53.731Z,18
2018-04-16T21:21:33.165Z,18
2018-04-16T21:31:33.702Z,19
2018-04-16T21:51:32.700Z,18
2018-04-16T22:01:42.735Z,18
2018-04-16T22:11:39.352Z,18
2018-04-16T22:21:44.893Z,18
2018-04-16T22:31:27.855Z,19
2018-04-16T22:41:33.070Z,18
2018-04-16T22:51:28.046Z,18
2018-04-16T23:01:33.376Z,18
2018-04-16T23:11:29.374Z,18
2018-04-16T23:21:27.374Z,18
2018-04-16T23:31:49.327Z,18
